Time;durP1;ratioP1;P1;durP2;ratioP2;P2;SDS_P1;SDS_P2;PMS_P1;PMS_P2;Temp;Humidity;BMP_temperature;BMP_pressure;BME280_temperature;BME280_humidity;BME280_pressure;Samples;Min_cycle;Max_cycle;Signal;HPM_P1;HPM_P2
2022/03/26 00:00:12;;;;;;;34.10;23.23;;;14.90;46.10;;;;;;5055758;28;21630;-73
2022/03/26 00:02:37;;;;;;;36.10;23.00;;;14.90;46.30;;;;;;5054493;28;20480;-74
2022/03/26 00:05:04;;;;;;;34.50;22.60;;;14.80;46.30;;;;;;5056359;28;20485;-75
2022/03/26 00:07:29;;;;;;;34.67;23.23;;;14.70;46.30;;;;;;5054095;28;20211;-75
2022/03/26 00:09:55;;;;;;;36.40;23.30;;;14.50;46.80;;;;;;5054908;28;20445;-74
2022/03/26 00:12:21;;;;;;;32.90;22.67;;;14.50;46.80;;;;;;5053849;28;20904;-75
2022/03/26 00:14:47;;;;;;;36.00;23.70;;;14.40;47.00;;;;;;5054837;28;20186;-75
2022/03/26 00:17:12;;;;;;;33.10;22.23;;;14.50;47.00;;;;;;5054222;28;20432;-75
2022/03/26 00:19:38;;;;;;;35.67;23.00;;;14.50;47.00;;;;;;5054710;28;20461;-75
2022/03/26 00:22:04;;;;;;;34.20;21.00;;;14.50;46.80;;;;;;5055275;28;20203;-75
2022/03/26 00:24:30;;;;;;;33.73;22.97;;;14.60;46.80;;;;;;5055047;28;20191;-75
2022/03/26 00:26:55;;;;;;;33.87;22.23;;;14.50;47.10;;;;;;5053165;28;20258;-75
2022/03/26 00:29:21;;;;;;;35.37;23.43;;;14.60;47.40;;;;;;5052975;28;20766;-76
2022/03/26 00:31:47;;;;;;;36.87;22.60;;;14.70;47.10;;;;;;5054741;28;20556;-75
2022/03/26 00:34:14;;;;;;;36.70;22.57;;;14.50;47.00;;;;;;5053900;28;20258;-76
2022/03/26 00:36:40;;;;;;;40.10;22.67;;;14.50;47.20;;;;;;5052403;28;20203;-75
2022/03/26 00:39:06;;;;;;;36.40;22.97;;;14.50;47.30;;;;;;5056274;28;20531;-74
2022/03/26 00:41:32;;;;;;;34.57;22.70;;;14.30;47.30;;;;;;5054645;28;20191;-75
2022/03/26 00:43:58;;;;;;;37.60;22.53;;;14.40;47.30;;;;;;5055100;28;20495;-74
2022/03/26 00:46:24;;;;;;;33.03;21.00;;;14.40;47.30;;;;;;5039435;28;20943;-74
2022/03/26 00:48:50;;;;;;;41.50;23.17;;;14.30;47.30;;;;;;5056375;28;20179;-75
2022/03/26 00:51:16;;;;;;;36.60;22.67;;;14.20;47.30;;;;;;5054468;28;20194;-74
2022/03/26 00:53:43;;;;;;;34.97;20.90;;;14.20;48.20;;;;;;5052834;28;20458;-75
2022/03/26 00:56:09;;;;;;;36.93;21.30;;;14.10;47.60;;;;;;5052819;28;20468;-74
2022/03/26 00:58:35;;;;;;;33.37;22.30;;;14.20;47.50;;;;;;5040506;28;20430;-73
2022/03/26 01:01:00;;;;;;;33.40;20.67;;;14.30;47.50;;;;;;5054842;28;20192;-74
2022/03/26 01:03:26;;;;;;;36.50;21.03;;;14.20;47.30;;;;;;5053570;28;20202;-72
2022/03/26 01:05:52;;;;;;;32.63;21.73;;;14.30;47.40;;;;;;5054923;28;20207;-72
2022/03/26 01:08:17;;;;;;;37.13;21.67;;;14.30;47.30;;;;;;5053644;28;21156;-73
2022/03/26 01:10:44;;;;;;;32.10;21.20;;;14.20;47.60;;;;;;5053289;28;20186;-73
2022/03/26 01:13:10;;;;;;;36.93;21.17;;;14.20;47.60;;;;;;5053240;28;20211;-72
2022/03/26 01:15:39;;;;;;;33.60;20.10;;;14.20;47.70;;;;;;5023196;28;20468;-75
2022/03/26 01:18:04;;;;;;;39.63;24.40;;;14.30;47.60;;;;;;5054142;28;20449;-75
2022/03/26 01:20:30;;;;;;;36.23;21.70;;;14.30;47.50;;;;;;5053884;28;21031;-75
2022/03/26 01:22:56;;;;;;;30.97;22.03;;;14.20;47.60;;;;;;5053744;28;20429;-75
2022/03/26 01:25:22;;;;;;;34.30;22.10;;;14.10;47.60;;;;;;5052060;28;20246;-75
2022/03/26 01:27:47;;;;;;;35.23;20.50;;;14.10;47.70;;;;;;5051169;28;20470;-73
2022/03/26 01:30:13;;;;;;;35.10;21.50;;;13.90;47.60;;;;;;5054626;28;20183;-77
2022/03/26 01:32:39;;;;;;;29.63;21.20;;;13.80;48.20;;;;;;5040775;28;20300;-75
2022/03/26 01:35:05;;;;;;;34.70;21.20;;;13.70;48.20;;;;;;5055646;28;20450;-76
2022/03/26 01:37:31;;;;;;;30.90;19.67;;;13.70;48.10;;;;;;5056954;28;20202;-76
2022/03/26 01:39:57;;;;;;;29.03;20.37;;;13.70;48.20;;;;;;5058408;28;21014;-77
2022/03/26 01:42:23;;;;;;;30.37;20.30;;;13.70;48.30;;;;;;5057475;28;20326;-75
2022/03/26 01:44:49;;;;;;;38.67;20.97;;;13.70;48.10;;;;;;5055293;28;20348;-76
2022/03/26 01:47:15;;;;;;;32.23;19.90;;;13.80;48.20;;;;;;5055650;28;20214;-75
2022/03/26 01:49:40;;;;;;;30.93;19.77;;;13.90;48.10;;;;;;5039843;28;20433;-74
2022/03/26 01:52:10;;;;;;;34.43;20.00;;;13.90;48.10;;;;;;5040189;28;20220;-76
2022/03/26 01:54:40;;;;;;;31.63;21.40;;;13.80;47.90;;;;;;5056305;28;20175;-74
2022/03/26 01:57:10;;;;;;;32.80;21.50;;;13.60;48.20;;;;;;5059380;28;20426;-74
2022/03/26 01:59:36;;;;;;;31.13;20.30;;;13.60;48.30;;;;;;5057166;28;21285;-74
2022/03/26 02:02:02;;;;;;;35.50;20.27;;;13.60;48.30;;;;;;5056695;28;20451;-75
2022/03/26 02:04:28;;;;;;;32.73;19.27;;;13.60;48.50;;;;;;5058177;28;20454;-74
2022/03/26 02:06:53;;;;;;;33.70;21.03;;;13.60;48.40;;;;;;5059951;28;20215;-73
2022/03/26 02:09:19;;;;;;;34.80;20.40;;;13.50;48.30;;;;;;5060258;28;20213;-74
2022/03/26 02:11:46;;;;;;;29.20;20.23;;;13.50;48.50;;;;;;5055424;28;20172;-75
2022/03/26 02:14:13;;;;;;;28.60;18.70;;;13.50;48.40;;;;;;5042404;28;20186;-74
2022/03/26 02:16:40;;;;;;;31.17;19.60;;;13.50;48.50;;;;;;5057134;28;20548;-75
2022/03/26 02:19:07;;;;;;;32.43;19.77;;;13.50;48.30;;;;;;5057326;28;20456;-75
2022/03/26 02:21:35;;;;;;;31.80;20.13;;;13.60;48.40;;;;;;5051780;28;20528;-75
2022/03/26 02:24:02;;;;;;;41.97;21.80;;;13.50;48.40;;;;;;5057419;28;20445;-74
2022/03/26 02:26:28;;;;;;;32.07;20.37;;;13.20;48.60;;;;;;5054222;28;20465;-75
2022/03/26 02:28:55;;;;;;;37.93;21.67;;;13.20;48.90;;;;;;5040828;28;20444;-74
2022/03/26 02:31:21;;;;;;;36.03;20.43;;;13.30;48.80;;;;;;5056870;28;20444;-75
2022/03/26 02:33:48;;;;;;;30.93;19.60;;;13.30;48.80;;;;;;5057198;28;20436;-75
2022/03/26 02:36:14;;;;;;;29.30;19.20;;;13.00;49.00;;;;;;5055077;28;20452;-75
2022/03/26 02:38:40;;;;;;;33.07;20.43;;;13.10;49.40;;;;;;5035418;28;20437;-75
2022/03/26 02:41:06;;;;;;;30.57;20.00;;;13.10;49.30;;;;;;5057606;28;20437;-76
2022/03/26 02:43:32;;;;;;;33.50;20.73;;;13.10;49.30;;;;;;5055391;28;20559;-76
2022/03/26 02:45:58;;;;;;;29.47;20.27;;;13.20;49.30;;;;;;5057518;28;20463;-77
2022/03/26 02:48:23;;;;;;;36.53;20.17;;;13.10;49.20;;;;;;5055705;28;20241;-75
2022/03/26 02:50:50;;;;;;;34.40;20.87;;;13.10;49.20;;;;;;5057537;28;20183;-76
2022/03/26 02:53:16;;;;;;;33.83;19.60;;;12.90;49.90;;;;;;5055916;28;20237;-76
2022/03/26 02:55:42;;;;;;;30.03;18.80;;;13.00;49.50;;;;;;5057688;28;20860;-76
2022/03/26 02:58:09;;;;;;;31.33;19.10;;;12.90;49.40;;;;;;5057590;28;20187;-75
2022/03/26 03:00:36;;;;;;;31.67;20.20;;;12.80;49.80;;;;;;5058482;28;20441;-78
2022/03/26 03:03:10;;;;;;;29.90;18.90;;;12.70;50.00;;;;;;5056257;28;20510;-75
2022/03/26 03:05:36;;;;;;;32.80;19.47;;;12.60;50.10;;;;;;5055068;28;20461;-76
2022/03/26 03:08:02;;;;;;;36.57;21.03;;;12.60;50.20;;;;;;5057575;28;20835;-75
2022/03/26 03:10:29;;;;;;;36.10;20.77;;;12.50;50.20;;;;;;5062132;28;20214;-76
2022/03/26 03:12:54;;;;;;;35.00;21.13;;;12.50;50.20;;;;;;5062031;28;20433;-77
2022/03/26 03:15:20;;;;;;;32.13;20.63;;;12.60;50.20;;;;;;5063617;28;20471;-76
2022/03/26 03:17:48;;;;;;;32.30;20.37;;;12.60;50.00;;;;;;5060697;28;20192;-77
2022/03/26 03:20:14;;;;;;;35.30;20.17;;;12.50;50.00;;;;;;5064355;28;20548;-76
2022/03/26 03:22:41;;;;;;;28.57;18.77;;;12.60;50.20;;;;;;5044130;28;20457;-77
2022/03/26 03:25:09;;;;;;;41.03;20.07;;;12.40;50.40;;;;;;5061749;28;20694;-73
2022/03/26 03:27:35;;;;;;;32.10;19.90;;;12.30;50.50;;;;;;5063690;28;20472;-74
2022/03/26 03:30:01;;;;;;;32.83;18.63;;;12.50;50.40;;;;;;5049930;28;20518;-76
2022/03/26 03:32:26;;;;;;;37.47;18.57;;;12.30;50.60;;;;;;5069124;28;20848;-74
2022/03/26 03:34:52;;;;;;;31.63;18.27;;;12.30;50.80;;;;;;5062955;28;20211;-76
2022/03/26 03:37:18;;;;;;;27.53;18.80;;;12.10;51.00;;;;;;5060909;28;20184;-76
2022/03/26 03:39:44;;;;;;;29.13;18.67;;;12.10;51.00;;;;;;5045965;28;20175;-75
2022/03/26 03:42:10;;;;;;;32.27;20.53;;;12.30;50.80;;;;;;5057639;28;20854;-73
2022/03/26 03:44:36;;;;;;;31.50;21.07;;;12.30;51.00;;;;;;5054942;28;20183;-73
2022/03/26 03:47:02;;;;;;;29.30;18.70;;;12.10;50.90;;;;;;5058598;28;20206;-75
2022/03/26 03:49:31;;;;;;;29.67;18.50;;;12.00;51.10;;;;;;5058546;28;20172;-73
2022/03/26 03:51:57;;;;;;;31.33;19.60;;;12.00;51.20;;;;;;5056831;28;20694;-75
2022/03/26 03:54:23;;;;;;;31.03;19.60;;;11.50;51.90;;;;;;5054955;28;20458;-73
2022/03/26 03:56:49;;;;;;;34.03;17.70;;;11.60;52.20;;;;;;5054981;28;20501;-75
2022/03/26 03:59:14;;;;;;;31.97;19.10;;;11.50;52.20;;;;;;5042316;28;20274;-75
2022/03/26 04:01:40;;;;;;;31.20;19.20;;;11.70;52.20;;;;;;5055369;28;20256;-75
2022/03/26 04:04:05;;;;;;;31.13;18.27;;;11.80;52.10;;;;;;5055592;28;20190;-75
2022/03/26 04:06:31;;;;;;;27.23;17.93;;;11.70;51.90;;;;;;5057130;28;20610;-77
2022/03/26 04:08:57;;;;;;;31.23;18.30;;;11.70;52.10;;;;;;5054321;28;20183;-73
2022/03/26 04:11:22;;;;;;;31.67;17.87;;;11.60;52.80;;;;;;5054434;28;20249;-75
2022/03/26 04:13:50;;;;;;;28.30;16.17;;;11.60;52.50;;;;;;5055268;28;20191;-73
2022/03/26 04:16:16;;;;;;;30.70;18.33;;;11.60;52.20;;;;;;5054400;28;20582;-74
2022/03/26 04:18:42;;;;;;;28.50;18.27;;;11.60;52.10;;;;;;5057633;28;20441;-75
2022/03/26 04:21:07;;;;;;;29.53;16.30;;;11.20;52.60;;;;;;5050425;28;20183;-78
2022/03/26 04:23:33;;;;;;;30.27;17.77;;;11.40;52.90;;;;;;5055195;28;20199;-76
2022/03/26 04:25:59;;;;;;;28.77;17.90;;;11.40;52.70;;;;;;5054780;28;20961;-73
2022/03/26 04:28:24;;;;;;;31.30;18.90;;;11.50;52.70;;;;;;5038700;28;20297;-77
2022/03/26 04:30:50;;;;;;;38.27;18.23;;;11.50;52.60;;;;;;5056110;28;20187;-77
2022/03/26 04:33:15;;;;;;;32.47;18.13;;;11.60;52.50;;;;;;5057308;28;20270;-77
2022/03/26 04:35:41;;;;;;;32.83;19.30;;;11.40;52.90;;;;;;5053901;28;20199;-75
2022/03/26 04:38:07;;;;;;;30.80;16.83;;;11.30;52.90;;;;;;5059529;28;20191;-74
2022/03/26 04:40:33;;;;;;;24.53;18.10;;;11.40;53.10;;;;;;5042433;28;20714;-75
2022/03/26 04:42:58;;;;;;;27.83;16.73;;;11.40;52.90;;;;;;5053213;28;20183;-76
2022/03/26 04:45:24;;;;;;;29.70;19.83;;;11.40;52.80;;;;;;5057922;28;21161;-73
2022/03/26 04:47:50;;;;;;;33.13;18.67;;;11.30;52.90;;;;;;5053420;28;20215;-74
2022/03/26 04:50:15;;;;;;;25.33;17.43;;;11.30;53.10;;;;;;5054483;28;20183;-74
2022/03/26 04:52:41;;;;;;;31.10;19.00;;;11.30;53.10;;;;;;5056013;28;20248;-74
2022/03/26 04:55:09;;;;;;;31.03;18.83;;;11.30;53.20;;;;;;5053092;28;20208;-75
2022/03/26 04:57:39;;;;;;;37.77;17.83;;;11.10;53.30;;;;;;5050238;28;20437;-72
2022/03/26 05:00:07;;;;;;;26.70;17.43;;;10.90;53.80;;;;;;5054710;28;20449;-73
2022/03/26 05:02:32;;;;;;;31.70;17.57;;;11.00;54.10;;;;;;5054994;28;20469;-73
2022/03/26 05:04:58;;;;;;;25.63;17.53;;;10.80;54.20;;;;;;5052063;28;20998;-74
2022/03/26 05:10:08;;;;;;;28.37;17.23;;;10.50;54.40;;;;;;5055644;28;20943;-74
2022/03/26 05:12:34;;;;;;;32.70;17.80;;;10.60;54.60;;;;;;5052398;28;20436;-75
2022/03/26 05:14:59;;;;;;;27.07;17.37;;;10.40;54.80;;;;;;5056308;28;20461;-74
2022/03/26 05:17:25;;;;;;;27.10;16.57;;;10.50;54.80;;;;;;5052717;28;20224;-74
2022/03/26 05:19:50;;;;;;;30.87;17.27;;;10.60;54.70;;;;;;5055783;28;20556;-77
2022/03/26 05:22:16;;;;;;;26.03;16.50;;;10.60;54.70;;;;;;5053270;28;20187;-76
2022/03/26 05:24:42;;;;;;;28.33;17.60;;;10.50;54.70;;;;;;5053592;28;20273;-74
2022/03/26 05:27:08;;;;;;;24.70;18.00;;;10.60;54.50;;;;;;5053894;28;20219;-75
2022/03/26 05:29:34;;;;;;;35.53;16.00;;;10.60;54.50;;;;;;5061159;28;20263;-73
2022/03/26 05:31:59;;;;;;;38.10;18.50;;;10.50;54.80;;;;;;5058029;28;20524;-76
2022/03/26 05:34:25;;;;;;;31.67;18.60;;;10.30;54.80;;;;;;5058803;28;20183;-75
2022/03/26 05:36:51;;;;;;;30.90;18.73;;;10.40;55.10;;;;;;5059295;28;20214;-74
2022/03/26 05:39:16;;;;;;;29.73;17.80;;;10.50;54.90;;;;;;5043396;28;20449;-74
2022/03/26 05:41:42;;;;;;;28.63;18.07;;;10.60;54.70;;;;;;5061237;28;21193;-75
2022/03/26 05:44:08;;;;;;;28.40;16.77;;;10.50;55.30;;;;;;5045949;28;20226;-74
2022/03/26 05:46:34;;;;;;;26.20;16.10;;;10.60;54.70;;;;;;5055068;28;20210;-73
2022/03/26 05:48:59;;;;;;;34.30;17.10;;;10.60;54.70;;;;;;5057537;28;20456;-75
2022/03/26 05:51:25;;;;;;;26.87;16.60;;;10.60;54.70;;;;;;5060064;28;20243;-76
2022/03/26 05:53:51;;;;;;;30.20;18.77;;;10.70;54.80;;;;;;5036341;28;20191;-75
2022/03/26 05:56:16;;;;;;;28.60;18.10;;;10.50;55.10;;;;;;5057438;28;20372;-73
2022/03/26 05:58:42;;;;;;;27.30;17.20;;;10.60;55.20;;;;;;5058667;28;20379;-73
2022/03/26 06:01:08;;;;;;;31.27;18.30;;;10.30;55.20;;;;;;5057617;28;20205;-73
2022/03/26 06:03:33;;;;;;;25.70;17.30;;;10.30;55.70;;;;;;5059348;28;20548;-74
2022/03/26 06:05:59;;;;;;;28.33;16.40;;;10.30;55.60;;;;;;5060047;28;20212;-75
2022/03/26 06:08:25;;;;;;;23.27;15.00;;;10.10;56.10;;;;;;5058648;28;20681;-76
2022/03/26 06:10:50;;;;;;;29.53;17.47;;;10.10;56.20;;;;;;5046782;28;20440;-77
2022/03/26 06:13:16;;;;;;;31.57;17.43;;;10.20;56.00;;;;;;5057972;28;20202;-78
2022/03/26 06:15:42;;;;;;;25.13;16.97;;;10.10;56.30;;;;;;5058966;28;20202;-76
2022/03/26 06:18:08;;;;;;;26.70;17.53;;;10.00;56.60;;;;;;5058861;28;20187;-74
2022/03/26 06:20:34;;;;;;;31.67;17.60;;;10.00;56.50;;;;;;5037602;28;20468;-74
2022/03/26 06:22:59;;;;;;;30.43;18.70;;;9.90;57.70;;;;;;5057931;28;20191;-73
2022/03/26 06:25:25;;;;;;;28.70;17.20;;;10.00;56.80;;;;;;5059488;28;20206;-74
2022/03/26 06:27:51;;;;;;;27.80;17.20;;;10.00;56.80;;;;;;5049977;28;20292;-77
2022/03/26 06:30:17;;;;;;;30.00;17.80;;;10.00;56.80;;;;;;5059273;28;20186;-75
2022/03/26 06:32:43;;;;;;;28.10;16.97;;;10.00;56.90;;;;;;5060448;28;20175;-73
2022/03/26 06:35:09;;;;;;;32.33;18.23;;;10.10;57.00;;;;;;5057917;28;22511;-77
2022/03/26 06:37:34;;;;;;;30.10;18.70;;;10.00;56.90;;;;;;5058873;28;20524;-74
2022/03/26 06:40:01;;;;;;;36.47;21.47;;;10.10;57.00;;;;;;5059087;28;20437;-74
2022/03/26 06:42:27;;;;;;;30.37;19.20;;;10.20;56.90;;;;;;5057972;28;20183;-72
2022/03/26 06:44:58;;;;;;;28.80;18.20;;;10.20;56.90;;;;;;5057655;28;20909;-73
2022/03/26 06:47:27;;;;;;;27.53;18.23;;;10.30;56.60;;;;;;5055811;28;20210;-77
2022/03/26 06:49:54;;;;;;;35.00;19.10;;;10.30;56.80;;;;;;5057486;28;20457;-75
2022/03/26 06:52:22;;;;;;;25.20;16.87;;;10.20;56.60;;;;;;5059273;28;20474;-73
2022/03/26 06:54:47;;;;;;;33.23;19.10;;;10.30;56.70;;;;;;5044444;28;20433;-76
2022/03/26 06:57:13;;;;;;;44.03;17.70;;;10.40;56.70;;;;;;5053215;28;20506;-75
2022/03/26 06:59:39;;;;;;;24.00;16.67;;;10.40;56.50;;;;;;5056906;28;20191;-73
2022/03/26 07:02:05;;;;;;;30.30;18.67;;;10.30;56.90;;;;;;5060192;28;20190;-75
2022/03/26 07:04:30;;;;;;;29.07;17.97;;;10.20;56.70;;;;;;5054058;28;20665;-75
2022/03/26 07:06:56;;;;;;;26.87;17.30;;;10.10;57.00;;;;;;5057557;28;20477;-74
2022/03/26 07:09:23;;;;;;;24.37;16.90;;;10.20;57.00;;;;;;5058723;28;20193;-72
2022/03/26 07:11:50;;;;;;;28.60;18.00;;;10.40;56.80;;;;;;5057313;28;20263;-72
2022/03/26 07:14:16;;;;;;;35.10;19.97;;;10.50;56.60;;;;;;5038850;28;20438;-76
2022/03/26 07:16:41;;;;;;;32.87;18.00;;;10.60;56.30;;;;;;5056461;28;20457;-73
2022/03/26 07:19:07;;;;;;;35.27;20.10;;;10.70;56.40;;;;;;5056222;28;20198;-74
2022/03/26 07:21:32;;;;;;;30.97;18.90;;;10.70;56.20;;;;;;5059147;28;20187;-75
2022/03/26 07:23:58;;;;;;;26.07;16.70;;;10.70;56.00;;;;;;5057268;28;20191;-78
2022/03/26 07:26:24;;;;;;;31.07;17.90;;;10.80;55.90;;;;;;5056580;28;20664;-74
2022/03/26 07:28:50;;;;;;;26.17;17.73;;;10.80;56.00;;;;;;5058533;28;20206;-75
2022/03/26 07:31:16;;;;;;;30.57;18.80;;;10.90;55.50;;;;;;5055576;28;20343;-73
2022/03/26 07:33:42;;;;;;;29.07;17.00;;;10.90;55.60;;;;;;5056711;28;20525;-73
2022/03/26 07:36:07;;;;;;;28.10;16.40;;;10.80;55.50;;;;;;5055371;28;20454;-74
2022/03/26 07:38:33;;;;;;;28.50;16.90;;;10.80;55.70;;;;;;5058979;28;20185;-72
2022/03/26 07:40:58;;;;;;;32.03;17.80;;;10.70;55.70;;;;;;5055113;28;20187;-73
2022/03/26 07:43:24;;;;;;;33.47;18.80;;;10.90;55.80;;;;;;5057511;28;20667;-74
2022/03/26 07:45:50;;;;;;;25.00;17.20;;;10.80;55.70;;;;;;5053406;28;20325;-74
2022/03/26 07:48:15;;;;;;;24.83;16.53;;;11.00;55.90;;;;;;5056127;28;20312;-74
2022/03/26 07:50:41;;;;;;;27.30;16.90;;;11.00;55.80;;;;;;5055890;28;20177;-74
2022/03/26 07:53:07;;;;;;;28.50;17.50;;;11.10;55.70;;;;;;5055877;28;20187;-76
2022/03/26 07:55:32;;;;;;;26.47;17.50;;;11.20;55.50;;;;;;5041364;28;20203;-74
2022/03/26 07:57:59;;;;;;;39.20;18.83;;;11.30;56.00;;;;;;5051307;28;20191;-76
2022/03/26 08:00:24;;;;;;;30.77;17.33;;;11.40;55.50;;;;;;5052663;28;21296;-75
2022/03/26 08:02:50;;;;;;;27.20;18.00;;;11.50;55.50;;;;;;5040966;28;20495;-76
2022/03/26 08:05:16;;;;;;;28.23;17.47;;;11.50;55.40;;;;;;5053450;28;20303;-74
2022/03/26 08:07:41;;;;;;;30.97;18.50;;;11.70;55.00;;;;;;5056962;28;20206;-76
2022/03/26 08:10:07;;;;;;;28.33;16.73;;;11.80;54.90;;;;;;5053553;28;20716;-75
2022/03/26 08:12:33;;;;;;;33.90;19.87;;;11.80;54.90;;;;;;5040278;28;20184;-76
2022/03/26 08:14:59;;;;;;;29.23;18.57;;;11.80;54.70;;;;;;5052840;28;20195;-78
2022/03/26 08:17:28;;;;;;;31.37;18.03;;;11.80;54.50;;;;;;5055805;28;20211;-74
2022/03/26 08:19:54;;;;;;;26.90;17.67;;;12.00;54.30;;;;;;5057905;28;20460;-76
2022/03/26 08:22:19;;;;;;;29.93;17.83;;;12.00;54.40;;;;;;5055174;28;20429;-74
2022/03/26 08:24:45;;;;;;;28.93;18.00;;;12.10;54.50;;;;;;5059870;28;20209;-76
2022/03/26 08:27:11;;;;;;;26.63;17.43;;;12.20;54.30;;;;;;5043152;28;20195;-78
2022/03/26 08:29:36;;;;;;;28.00;18.00;;;12.30;54.40;;;;;;5059112;28;20747;-74
2022/03/26 08:32:04;;;;;;;34.53;18.63;;;12.40;54.30;;;;;;5057661;28;20569;-75
2022/03/26 08:34:30;;;;;;;26.57;16.40;;;12.40;54.00;;;;;;5058642;28;20282;-74
2022/03/26 08:36:56;;;;;;;31.53;19.47;;;12.40;53.60;;;;;;5060661;28;20873;-75
2022/03/26 08:39:21;;;;;;;29.37;18.00;;;12.40;54.00;;;;;;5041341;28;20742;-75
2022/03/26 08:41:47;;;;;;;30.07;18.30;;;12.50;53.80;;;;;;5061208;28;20187;-76
2022/03/26 08:44:13;;;;;;;32.20;19.93;;;12.60;54.10;;;;;;5042022;28;20179;-75
2022/03/26 08:46:39;;;;;;;26.83;18.60;;;12.50;54.10;;;;;;5044054;28;20256;-76
2022/03/26 08:49:04;;;;;;;33.33;19.57;;;12.60;54.30;;;;;;5051610;28;20815;-78
2022/03/26 08:51:30;;;;;;;29.07;19.03;;;12.70;54.20;;;;;;5054227;28;20294;-77
2022/03/26 08:53:56;;;;;;;30.07;18.70;;;12.80;54.30;;;;;;5052107;28;20205;-76
2022/03/26 08:56:22;;;;;;;32.10;19.23;;;12.80;54.00;;;;;;5050467;28;21202;-75
2022/03/26 08:58:48;;;;;;;33.23;16.70;;;12.90;54.00;;;;;;5054812;28;20270;-75
2022/03/26 09:01:14;;;;;;;30.93;18.60;;;13.00;54.60;;;;;;5057624;28;20294;-75
2022/03/26 09:03:40;;;;;;;30.90;18.90;;;13.10;53.70;;;;;;5056036;28;21036;-74
2022/03/26 09:06:07;;;;;;;34.20;18.53;;;13.10;53.80;;;;;;5056291;28;20250;-74
2022/03/26 09:08:34;;;;;;;32.00;18.70;;;13.10;53.90;;;;;;5059845;28;20458;-73
2022/03/26 09:11:00;;;;;;;33.33;21.03;;;13.20;53.70;;;;;;5058696;28;20529;-74
2022/03/26 09:13:26;;;;;;;28.47;18.27;;;13.30;53.70;;;;;;5058349;28;20416;-75
2022/03/26 09:15:51;;;;;;;32.30;19.77;;;13.40;53.70;;;;;;5036662;28;20849;-76
2022/03/26 09:18:17;;;;;;;32.47;19.57;;;13.50;53.50;;;;;;5043866;28;20181;-74
2022/03/26 09:20:43;;;;;;;35.60;20.33;;;13.60;53.30;;;;;;5056151;28;20190;-74
2022/03/26 09:23:08;;;;;;;30.90;19.87;;;13.60;53.70;;;;;;5059114;28;20201;-75
2022/03/26 09:25:34;;;;;;;29.60;20.90;;;13.70;53.10;;;;;;5060073;28;20214;-74
2022/03/26 09:28:00;;;;;;;34.57;22.00;;;13.80;53.00;;;;;;5061121;28;20222;-74
2022/03/26 09:30:26;;;;;;;35.87;19.93;;;13.90;52.50;;;;;;5050805;28;20422;-73
2022/03/26 09:32:51;;;;;;;38.27;19.83;;;13.90;52.30;;;;;;5053906;28;20591;-74
2022/03/26 09:35:17;;;;;;;29.83;19.50;;;14.00;52.50;;;;;;5055211;28;20227;-74
2022/03/26 09:37:44;;;;;;;31.43;20.70;;;14.10;52.60;;;;;;5050852;28;20269;-74
2022/03/26 09:40:11;;;;;;;31.87;19.50;;;14.20;52.30;;;;;;5039242;28;20196;-73
2022/03/26 09:42:38;;;;;;;33.70;21.10;;;14.20;52.30;;;;;;5060530;28;20528;-73
2022/03/26 09:45:06;;;;;;;34.03;20.57;;;14.40;52.20;;;;;;5052064;28;20561;-73
2022/03/26 09:47:33;;;;;;;32.43;19.70;;;14.40;52.20;;;;;;5054767;28;20458;-75
2022/03/26 09:49:59;;;;;;;34.20;21.47;;;14.50;52.00;;;;;;5053892;28;20438;-74
2022/03/26 09:52:25;;;;;;;32.50;22.00;;;14.60;51.50;;;;;;5040005;28;20447;-75
2022/03/26 09:54:51;;;;;;;40.67;22.73;;;14.70;51.70;;;;;;5058018;28;20438;-74
2022/03/26 09:57:17;;;;;;;33.60;21.70;;;14.80;52.10;;;;;;5023802;28;21314;-74
2022/03/26 09:59:43;;;;;;;37.83;21.77;;;14.90;51.90;;;;;;5054176;28;20195;-74
2022/03/26 10:02:08;;;;;;;31.97;21.17;;;14.90;51.60;;;;;;5053367;28;20183;-73
2022/03/26 10:04:40;;;;;;;38.03;21.37;;;14.90;51.30;;;;;;5039041;28;20993;-73
2022/03/26 10:07:07;;;;;;;36.07;22.87;;;15.00;51.60;;;;;;5051219;28;20580;-74
2022/03/26 10:09:45;;;;;;;36.33;21.90;;;15.10;51.60;;;;;;5052420;28;20437;-77
2022/03/26 10:12:14;;;;;;;32.77;22.60;;;15.10;51.70;;;;;;5040285;28;20470;-75
2022/03/26 10:14:56;;;;;;;33.53;20.00;;;15.30;51.40;;;;;;5032900;28;20426;-72
2022/03/26 10:17:24;;;;;;;39.40;22.27;;;15.40;51.20;;;;;;5055006;28;20461;-75
2022/03/26 10:19:53;;;;;;;39.53;22.80;;;15.40;51.50;;;;;;5053652;28;20480;-73
2022/03/26 10:22:42;;;;;;;39.92;24.90;;;15.50;50.80;;;;;;5024550;28;20931;-75
2022/03/26 10:25:13;;;;;;;41.17;24.40;;;15.60;50.20;;;;;;5054715;28;20207;-74
2022/03/26 10:27:43;;;;;;;40.00;24.80;;;15.60;50.10;;;;;;5059483;28;20460;-72
2022/03/26 10:33:25;;;;;;;39.10;22.80;;;15.80;50.00;;;;;;5053660;28;20800;-72
2022/03/26 10:35:55;;;;;;;35.47;23.27;;;15.90;50.50;;;;;;5056142;28;20512;-75
2022/03/26 10:38:32;;;;;;;33.27;22.80;;;16.00;50.00;;;;;;5054521;28;21209;-70
2022/03/26 10:40:59;;;;;;;35.60;21.90;;;16.10;49.50;;;;;;5037338;28;20432;-74
2022/03/26 10:43:27;;;;;;;36.30;21.60;;;16.10;49.80;;;;;;5055073;28;20494;-76
2022/03/26 10:45:55;;;;;;;35.83;23.33;;;16.20;50.10;;;;;;5056167;28;20472;-77
2022/03/26 10:48:32;;;;;;;35.03;25.03;;;16.20;49.70;;;;;;5049683;28;20522;-74
2022/03/26 10:51:06;;;;;;;44.77;24.77;;;16.30;50.00;;;;;;5055678;28;20425;-73
2022/03/26 10:53:54;;;;;;;35.63;23.50;;;16.40;49.80;;;;;;5059286;28;20452;-74
2022/03/26 10:56:20;;;;;;;40.50;25.10;;;16.50;49.90;;;;;;5059669;28;20857;-74
2022/03/26 10:58:46;;;;;;;38.40;24.53;;;16.60;49.60;;;;;;5057097;28;20434;-74
2022/03/26 11:01:14;;;;;;;44.40;27.70;;;16.60;49.50;;;;;;5042844;28;20448;-73
2022/03/26 11:03:41;;;;;;;40.13;25.77;;;16.60;49.40;;;;;;5058326;28;20599;-72
2022/03/26 11:06:10;;;;;;;40.00;25.93;;;16.80;49.50;;;;;;5057179;28;20449;-74
2022/03/26 11:08:37;;;;;;;37.57;23.20;;;16.80;48.90;;;;;;5055244;28;20468;-74
2022/03/26 11:11:07;;;;;;;36.07;24.40;;;16.80;49.20;;;;;;5054702;28;20504;-77
2022/03/26 11:13:36;;;;;;;42.17;23.50;;;16.90;48.80;;;;;;5056530;28;20429;-75
2022/03/26 11:16:27;;;;;;;40.00;23.17;;;16.90;48.60;;;;;;5056015;28;21104;-74
2022/03/26 11:19:20;;;;;;;36.10;24.83;;;17.00;49.20;;;;;;5020163;28;20438;-75
2022/03/26 11:22:01;;;;;;;39.00;24.10;;;17.10;48.90;;;;;;5054945;28;21067;-73
2022/03/26 11:24:54;;;;;;;32.70;22.80;;;17.20;47.80;;;;;;5054277;28;20448;-74
2022/03/26 11:27:52;;;;;;;38.73;23.80;;;17.30;47.90;;;;;;5059261;28;20456;-75
2022/03/26 11:30:29;;;;;;;38.17;22.70;;;17.40;47.70;;;;;;5048765;28;20459;-73
2022/03/26 11:32:56;;;;;;;39.60;24.23;;;17.30;47.30;;;;;;5059004;28;20968;-73
2022/03/26 11:35:21;;;;;;;39.60;24.70;;;17.50;47.30;;;;;;5051957;28;20438;-74
2022/03/26 11:37:56;;;;;;;32.90;22.40;;;17.60;47.60;;;;;;5053248;28;20982;-74
2022/03/26 11:40:45;;;;;;;35.13;22.97;;;17.80;47.60;;;;;;5051104;28;20495;-74
2022/03/26 11:43:12;;;;;;;36.43;24.80;;;17.80;47.30;;;;;;5054488;28;20500;-74
2022/03/26 11:51:27;;;;;;;36.00;23.30;;;18.10;46.90;;;;;;5057311;28;20457;-74
2022/03/26 11:54:12;;;;;;;34.70;23.80;;;18.30;45.90;;;;;;5040806;28;21580;-74
2022/03/26 11:56:38;;;;;;;33.03;22.30;;;18.40;45.60;;;;;;5059287;28;20455;-73
2022/03/26 11:59:23;;;;;;;38.10;23.90;;;18.60;45.30;;;;;;5056737;28;20525;-74
2022/03/26 12:01:50;;;;;;;34.13;20.13;;;18.70;44.70;;;;;;5056172;28;20444;-74
2022/03/26 12:04:18;;;;;;;31.97;20.80;;;18.90;44.60;;;;;;5054630;28;20433;-74
2022/03/26 12:06:51;;;;;;;33.57;22.10;;;19.10;43.90;;;;;;5053104;28;20477;-73
2022/03/26 12:09:29;;;;;;;34.47;21.87;;;19.70;43.50;;;;;;5057294;28;20443;-73
2022/03/26 12:12:16;;;;;;;35.43;22.23;;;20.40;42.70;;;;;;5052297;28;20465;-74
2022/03/26 12:15:04;;;;;;;36.53;23.37;;;21.10;41.90;;;;;;5052186;28;20466;-73
2022/03/26 12:17:45;;;;;;;30.70;21.00;;;21.90;41.00;;;;;;5054900;28;21274;-73
2022/03/26 12:20:18;;;;;;;28.63;20.70;;;22.50;40.00;;;;;;5056157;28;20441;-74
2022/03/26 12:22:44;;;;;;;28.70;21.53;;;23.00;38.70;;;;;;5056571;28;21100;-74
2022/03/26 12:25:16;;;;;;;29.27;19.87;;;23.20;38.00;;;;;;5052784;28;20464;-74
2022/03/26 12:27:42;;;;;;;32.10;20.30;;;23.70;37.40;;;;;;5056011;28;20198;-75
2022/03/26 12:30:08;;;;;;;28.30;19.23;;;23.90;36.60;;;;;;5038774;28;20432;-74
2022/03/26 12:32:34;;;;;;;29.83;20.10;;;24.40;36.90;;;;;;5049969;28;20487;-75
2022/03/26 12:35:03;;;;;;;30.10;22.37;;;24.50;37.40;;;;;;5053521;28;20441;-74
2022/03/26 12:37:30;;;;;;;27.67;20.80;;;24.90;37.90;;;;;;5056393;28;20180;-74
2022/03/26 12:39:56;;;;;;;32.93;21.97;;;24.70;37.40;;;;;;5057583;28;20564;-74